Station Historical Data
Daily Summary for March 30, 2017 Units:  English    Metric   Both
« Previous Day
Next Day »
Daily Weekly Monthly Yearly Custom
  High: Low: Average:
Temperature: 54.3 °F 41.5 °F 47.8 °F
Dew Point: 50.0 °F 26.2 °F 38 °F
Humidity: 91 % 36 % 71 %
Wind Speed: 20.0 mph 0.0 mph 3.7 mph
Wind Gust: 25.0 mph - -
Wind:- - SW
Pressure: 30.09 in 29.93 in -
Precipitation: 0.35 in    
Historical Graphs
 
 
Tabular Data for March 30, 2017
Time Temperature Dew Point Pressure Wind Wind Speed Wind Gust Humidity Rainfall Rate (Hourly) solar
00:04 54.3 °F 49.6 °F 30.09 in SE 2.0 mph 7.0 mph 84 % 0.00 in 0.00 W/m2
00:09 54.2 °F 49.5 °F 30.08 in SE 6.0 mph 7.0 mph 84 % 0.00 in 0.00 W/m2
00:14 54.2 °F 49.5 °F 30.09 in Calm   7.0 mph 84 % 0.00 in 0.00 W/m2
00:19 54.2 °F 49.8 °F 30.09 in SE 2.0 mph 5.0 mph 85 % 0.00 in 0.00 W/m2
00:24 54.2 °F 49.5 °F 30.08 in Calm   7.0 mph 84 % 0.00 in 0.00 W/m2
00:29 54.2 °F 49.5 °F 30.08 in Calm   7.0 mph 84 % 0.00 in 0.00 W/m2
00:34 54.2 °F 49.8 °F 30.07 in SE 5.0 mph 6.0 mph 85 % 0.00 in 0.00 W/m2
00:39 54.2 °F 49.8 °F 30.07 in SE 4.0 mph 8.0 mph 85 % 0.00 in 0.00 W/m2
00:44 54.1 °F 49.4 °F 30.06 in SE 5.0 mph 8.0 mph 84 % 0.00 in 0.00 W/m2
00:49 54.1 °F 49.4 °F 30.06 in SSE 7.0 mph 9.0 mph 84 % 0.00 in 0.00 W/m2
00:54 54.0 °F 49.3 °F 30.06 in Calm   12.0 mph 84 % 0.00 in 0.00 W/m2
00:59 54.0 °F 49.3 °F 30.07 in Calm   10.0 mph 84 % 0.00 in 0.00 W/m2
01:04 54.0 °F 49.3 °F 30.07 in South 3.0 mph 8.0 mph 84 % 0.00 in 0.00 W/m2
01:09 53.9 °F 49.2 °F 30.07 in Calm   8.0 mph 84 % 0.00 in 0.00 W/m2
01:14 54.0 °F 49.3 °F 30.07 in SSW 3.0 mph 5.0 mph 84 % 0.00 in 0.00 W/m2
01:19 54.0 °F 49.6 °F 30.06 in South 3.0 mph 6.0 mph 85 % 0.00 in 0.00 W/m2
01:24 54.0 °F 49.9 °F 30.06 in Calm   6.0 mph 86 % 0.00 in 0.00 W/m2
01:29 53.9 °F 49.8 °F 30.05 in Calm   9.0 mph 86 % 0.00 in 0.00 W/m2
01:34 53.8 °F 50.0 °F 30.05 in South 2.0 mph 12.0 mph 87 % 0.00 in 0.00 W/m2
01:39 53.6 °F 49.8 °F 30.04 in SSE 2.0 mph 12.0 mph 87 % 0.00 in 0.00 W/m2
01:42 53.5 °F 49.7 °F 30.04 in South 5.0 mph 9.0 mph 87 % 0.00 in 0.00 W/m2
01:47 53.2 °F 49.4 °F 30.04 in South 9.0 mph 11.0 mph 87 % 0.00 in 0.00 W/m2
01:52 53.1 °F 49.7 °F 30.04 in South 8.0 mph 8.0 mph 88 % 0.00 in 0.00 W/m2
01:57 52.9 °F 49.5 °F 30.04 in Calm   8.0 mph 88 % 0.05 in 0.00 W/m2
02:02 52.7 °F 49.2 °F 30.03 in SSE 1.0 mph 10.0 mph 88 % 0.08 in 0.00 W/m2
02:07 52.6 °F 49.2 °F 30.03 in SSE 5.0 mph 7.0 mph 88 % 0.08 in 0.00 W/m2
02:13 52.4 °F 49.0 °F 30.03 in South 1.0 mph 8.0 mph 88 % 0.05 in 0.00 W/m2
02:14 52.3 °F 48.9 °F 30.03 in South 3.0 mph 9.0 mph 88 % 0.04 in 0.00 W/m2
02:19 52.2 °F 49.1 °F 30.04 in SW 6.0 mph 8.0 mph 89 % 0.00 in 0.00 W/m2
02:24 52.1 °F 49.0 °F 30.03 in Calm   13.0 mph 89 % 0.34 in 0.00 W/m2
02:29 51.9 °F 48.8 °F 30.03 in SSW 3.0 mph 14.0 mph 89 % 0.19 in 0.00 W/m2
02:34 51.7 °F 48.6 °F 30.02 in South 1.0 mph 15.0 mph 89 % 0.14 in 0.00 W/m2
02:39 51.5 °F 48.4 °F 30.02 in South 10.0 mph 16.0 mph 89 % 0.13 in 0.00 W/m2
02:44 51.3 °F 48.2 °F 30.02 in South 9.0 mph 14.0 mph 89 % 0.06 in 0.00 W/m2
02:49 51.1 °F 48.0 °F 30.02 in South 10.0 mph 13.0 mph 89 % 0.13 in 0.00 W/m2
02:54 50.9 °F 47.8 °F 30.02 in SSW 11.0 mph 13.0 mph 89 % 0.24 in 0.00 W/m2
02:59 50.8 °F 47.7 °F 30.02 in SSW 4.0 mph 13.0 mph 89 % 0.19 in 0.00 W/m2
03:00 50.8 °F 48.0 °F 30.02 in Calm   13.0 mph 90 % 0.19 in 0.00 W/m2
03:05 50.6 °F 47.8 °F 30.01 in SSE 1.0 mph 10.0 mph 90 % 0.39 in 0.00 W/m2
03:10 50.6 °F 47.5 °F 30.00 in SSE 8.0 mph 11.0 mph 89 % 0.09 in 0.00 W/m2
03:15 50.5 °F 47.7 °F 30.00 in SE 11.0 mph 12.0 mph 90 % 0.05 in 0.00 W/m2
03:20 50.3 °F 47.5 °F 29.99 in South 6.0 mph 15.0 mph 90 % 0.04 in 0.00 W/m2
03:25 50.2 °F 47.4 °F 29.99 in SSE 1.0 mph 13.0 mph 90 % 0.00 in 0.00 W/m2
03:30 50.1 °F 47.3 °F 29.98 in SSE 7.0 mph 14.0 mph 90 % 0.00 in 0.00 W/m2
03:35 50.1 °F 47.3 °F 29.98 in South 1.0 mph 10.0 mph 90 % 0.00 in 0.00 W/m2
03:38 50.1 °F 47.3 °F 29.98 in South 9.0 mph 10.0 mph 90 % 0.00 in 0.00 W/m2
03:43 50.0 °F 47.2 °F 29.98 in South 13.0 mph 14.0 mph 90 % 0.06 in 0.00 W/m2
03:48 49.9 °F 47.1 °F 29.98 in South 9.0 mph 11.0 mph 90 % 0.23 in 0.00 W/m2
03:53 49.8 °F 47.0 °F 29.98 in South 5.0 mph 11.0 mph 90 % 0.14 in 0.00 W/m2
03:58 49.7 °F 46.9 °F 29.98 in Calm   16.0 mph 90 % 0.10 in 0.00 W/m2
04:03 49.6 °F 46.8 °F 29.98 in SSW 9.0 mph 17.0 mph 90 % 0.17 in 0.00 W/m2
04:08 49.5 °F 46.7 °F 29.98 in Calm   11.0 mph 90 % 0.07 in 0.00 W/m2
04:13 49.3 °F 46.5 °F 29.99 in Calm   10.0 mph 90 % 0.04 in 0.00 W/m2
04:18 49.2 °F 46.4 °F 29.98 in Calm     90 % 0.00 in 0.00 W/m2
04:23 49.1 °F 46.3 °F 29.98 in Calm     90 % 0.00 in 0.00 W/m2
04:28 49.1 °F 46.3 °F 29.98 in South 10.0 mph 11.0 mph 90 % 0.00 in 0.00 W/m2
04:33 49.0 °F 46.2 °F 29.97 in SSW 1.0 mph 11.0 mph 90 % 0.00 in 0.00 W/m2
04:38 49.0 °F 46.2 °F 29.97 in SSW 5.0 mph 13.0 mph 90 % 0.00 in 0.00 W/m2
04:43 48.9 °F 46.1 °F 29.97 in Calm   1.0 mph 90 % 0.00 in 0.00 W/m2
04:48 48.9 °F 46.1 °F 29.97 in SSW 2.0 mph 10.0 mph 90 % 0.00 in 0.00 W/m2
04:53 48.8 °F 46.0 °F 29.97 in SW 6.0 mph 16.0 mph 90 % 0.07 in 0.00 W/m2
04:58 48.7 °F 45.9 °F 29.96 in SW 6.0 mph 11.0 mph 90 % 0.07 in 0.00 W/m2
05:03 48.6 °F 45.8 °F 29.96 in Calm   12.0 mph 90 % 0.05 in 0.00 W/m2
05:08 48.6 °F 45.8 °F 29.96 in SW 14.0 mph 16.0 mph 90 % 0.04 in 0.00 W/m2
05:13 48.5 °F 45.7 °F 29.96 in South 2.0 mph 11.0 mph 90 % 0.00 in 0.00 W/m2
05:18 48.5 °F 45.7 °F 29.96 in SSW 4.0 mph 13.0 mph 90 % 0.00 in 0.00 W/m2
05:23 48.4 °F 45.6 °F 29.96 in SSW 6.0 mph 7.0 mph 90 % 0.00 in 0.00 W/m2
05:28 48.4 °F 45.6 °F 29.96 in SW 1.0 mph 11.0 mph 90 % 0.00 in 0.00 W/m2
05:34 48.4 °F 45.6 °F 29.95 in SW 3.0 mph 12.0 mph 90 % 0.00 in 0.00 W/m2
05:39 48.3 °F 45.5 °F 29.96 in Calm   9.0 mph 90 % 0.00 in 0.00 W/m2
05:44 48.4 °F 45.6 °F 29.96 in SW 6.0 mph 13.0 mph 90 % 0.00 in 0.00 W/m2
05:49 48.4 °F 45.6 °F 29.96 in WSW 16.0 mph 17.0 mph 90 % 0.00 in 0.00 W/m2
05:54 48.4 °F 45.6 °F 29.95 in Calm   17.0 mph 90 % 0.00 in 0.00 W/m2
05:59 48.3 °F 45.5 °F 29.95 in Calm   14.0 mph 90 % 0.00 in 0.00 W/m2
06:04 48.3 °F 45.5 °F 29.95 in West 7.0 mph 13.0 mph 90 % 0.00 in 0.00 W/m2
06:09 48.2 °F 45.4 °F 29.95 in WNW 14.0 mph 14.0 mph 90 % 0.00 in 0.00 W/m2
06:14 48.1 °F 45.3 °F 29.94 in South 8.0 mph 16.0 mph 90 % 0.00 in 0.00 W/m2
06:19 48.0 °F 45.2 °F 29.94 in West 11.0 mph 14.0 mph 90 % 0.00 in 0.00 W/m2
06:24 47.9 °F 45.1 °F 29.94 in SW 11.0 mph 12.0 mph 90 % 0.00 in 0.00 W/m2
06:29 47.7 °F 44.9 °F 29.94 in West 15.0 mph 25.0 mph 90 % 0.00 in 0.00 W/m2
06:34 47.5 °F 44.7 °F 29.94 in SW 9.0 mph 16.0 mph 90 % 0.00 in 0.00 W/m2
06:39 47.4 °F 44.6 °F 29.94 in West 9.0 mph 21.0 mph 90 % 0.00 in 0.00 W/m2
06:44 47.3 °F 44.5 °F 29.94 in WSW 11.0 mph 13.0 mph 90 % 0.00 in 0.00 W/m2
06:49 47.2 °F 44.4 °F 29.93 in West 5.0 mph 13.0 mph 90 % 0.00 in 0.00 W/m2
06:54 47.1 °F 44.3 °F 29.93 in WSW 11.0 mph 21.0 mph 90 % 0.00 in 0.00 W/m2
06:59 46.9 °F 44.1 °F 29.93 in West 15.0 mph 17.0 mph 90 % 0.00 in 0.00 W/m2
07:04 46.6 °F 43.8 °F 29.94 in WSW 6.0 mph 21.0 mph 90 % 0.29 in 0.00 W/m2
07:09 46.3 °F 43.5 °F 29.94 in West 9.0 mph 20.0 mph 90 % 0.14 in 0.00 W/m2
07:14 46.1 °F 43.3 °F 29.94 in WNW 5.0 mph 25.0 mph 90 % 0.07 in 0.00 W/m2
07:19 45.9 °F 43.1 °F 29.95 in West 9.0 mph 24.0 mph 90 % 0.05 in 0.00 W/m2
07:24 45.6 °F 42.8 °F 29.95 in WSW 4.0 mph 10.0 mph 90 % 0.05 in 0.00 W/m2
07:29 45.4 °F 42.6 °F 29.95 in WNW 4.0 mph 15.0 mph 90 % 0.09 in 0.00 W/m2
07:34 45.3 °F 42.5 °F 29.96 in WNW 10.0 mph 17.0 mph 90 % 0.07 in 0.00 W/m2
07:39 45.2 °F 42.5 °F 29.97 in WNW 1.0 mph 12.0 mph 90 % 0.04 in 16.00 W/m2
07:44 45.0 °F 42.2 °F 29.97 in West 5.0 mph 14.0 mph 90 % 0.00 in 21.00 W/m2
07:49 44.7 °F 42.0 °F 29.97 in NW 9.0 mph 12.0 mph 90 % 0.00 in 28.00 W/m2
07:54 44.5 °F 41.8 °F 29.96 in Calm   7.0 mph 90 % 0.00 in 40.00 W/m2
07:59 44.3 °F 41.6 °F 29.96 in WNW 2.0 mph 10.0 mph 90 % 0.00 in 156.00 W/m2
08:04 43.8 °F 41.1 °F 29.97 in Calm     90 % 0.00 in 178.00 W/m2
08:09 43.6 °F 40.9 °F 29.97 in NW 9.0 mph 14.0 mph 90 % 0.00 in 204.00 W/m2
08:14 43.3 °F 40.6 °F 29.98 in NW 12.0 mph 12.0 mph 90 % 0.00 in 283.00 W/m2
08:19 43.0 °F 40.3 °F 29.98 in NW 11.0 mph 12.0 mph 90 % 0.00 in 311.00 W/m2
08:24 42.8 °F 40.1 °F 29.98 in NW 4.0 mph 10.0 mph 90 % 0.00 in 123.00 W/m2
08:29 42.5 °F 39.8 °F 29.99 in NW 6.0 mph 9.0 mph 90 % 0.00 in 79.00 W/m2
08:34 42.1 °F 39.7 °F 29.98 in NW 6.0 mph 10.0 mph 91 % 0.00 in 318.00 W/m2
08:39 41.7 °F 39.0 °F 29.99 in Calm     90 % 0.00 in 287.00 W/m2
08:44 41.6 °F 38.9 °F 29.99 in Calm   9.0 mph 90 % 0.00 in 366.00 W/m2
08:49 41.6 °F 38.9 °F 29.99 in Calm   8.0 mph 90 % 0.00 in 360.00 W/m2
08:54 41.6 °F 38.9 °F 30.00 in Calm   8.0 mph 90 % 0.00 in 380.00 W/m2
08:59 41.5 °F 38.8 °F 30.00 in Calm   3.0 mph 90 % 0.00 in 392.00 W/m2
09:04 41.5 °F 38.8 °F 30.01 in WNW 1.0 mph 7.0 mph 90 % 0.00 in 411.00 W/m2
09:09 41.5 °F 38.8 °F 30.00 in Calm   9.0 mph 90 % 0.00 in 429.00 W/m2
09:14 41.5 °F 38.8 °F 30.01 in Calm   6.0 mph 90 % 0.00 in 445.00 W/m2
09:19 41.6 °F 38.9 °F 30.02 in Calm   6.0 mph 90 % 0.00 in 459.00 W/m2
09:24 41.6 °F 38.9 °F 30.02 in Calm   6.0 mph 90 % 0.00 in 619.00 W/m2
09:29 41.9 °F 39.2 °F 30.02 in Calm   10.0 mph 90 % 0.00 in 253.00 W/m2
09:34 41.9 °F 39.2 °F 30.03 in WNW 7.0 mph 9.0 mph 90 % 0.00 in 195.00 W/m2
09:39 42.0 °F 39.3 °F 30.03 in Calm   8.0 mph 90 % 0.00 in 564.00 W/m2
09:44 42.1 °F 39.4 °F 30.03 in Calm   6.0 mph 90 % 0.00 in 570.00 W/m2
09:49 42.1 °F 39.7 °F 30.03 in Calm   8.0 mph 91 % 0.00 in 218.00 W/m2
09:54 42.0 °F 39.3 °F 30.03 in Calm     90 % 0.00 in 318.00 W/m2
09:59 42.1 °F 39.4 °F 30.04 in Calm   1.0 mph 90 % 0.00 in 144.00 W/m2
10:04 42.2 °F 39.5 °F 30.04 in Calm   1.0 mph 90 % 0.00 in 77.00 W/m2
10:09 41.9 °F 39.2 °F 30.04 in Calm     90 % 0.00 in 142.00 W/m2
10:14 41.9 °F 39.2 °F 30.04 in Calm   8.0 mph 90 % 0.00 in 176.00 W/m2
10:19 41.9 °F 38.9 °F 30.04 in Calm     89 % 0.00 in 237.00 W/m2
10:24 42.0 °F 39.3 °F 30.04 in Calm     90 % 0.00 in 737.00 W/m2
10:29 42.0 °F 39.0 °F 30.04 in Calm   5.0 mph 89 % 0.00 in 740.00 W/m2
10:34 42.3 °F 39.6 °F 30.04 in Calm   10.0 mph 90 % 0.00 in 513.00 W/m2
10:39 42.5 °F 39.5 °F 30.05 in WNW 9.0 mph 9.0 mph 89 % 0.00 in 207.00 W/m2
10:44 42.6 °F 39.3 °F 30.05 in Calm   13.0 mph 88 % 0.00 in 366.00 W/m2
10:49 42.7 °F 39.4 °F 30.05 in Calm   7.0 mph 88 % 0.00 in 127.00 W/m2
10:55 42.7 °F 38.8 °F 30.05 in Calm   7.0 mph 86 % 0.00 in 207.00 W/m2
10:56 42.8 °F 39.2 °F 30.06 in Calm   7.0 mph 87 % 0.00 in 246.00 W/m2
11:01 43.0 °F 39.4 °F 30.05 in Calm     87 % 0.00 in 1004.00 W/m2
15:06 51.9 °F 30.1 °F 30.03 in NNE 4.0 mph 17.0 mph 43 % 0.00 in 202.00 W/m2
15:11 51.6 °F 31.0 °F 30.03 in North 5.0 mph 16.0 mph 45 % 0.00 in 179.00 W/m2
15:16 51.2 °F 30.0 °F 30.03 in North 11.0 mph 15.0 mph 44 % 0.00 in 176.00 W/m2
15:21 50.8 °F 30.2 °F 30.03 in NNW 8.0 mph 13.0 mph 45 % 0.00 in 172.00 W/m2
15:26 50.5 °F 29.4 °F 30.03 in NNW 1.0 mph 10.0 mph 44 % 0.00 in 148.00 W/m2
15:31 50.4 °F 32.0 °F 30.02 in Calm   13.0 mph 49 % 0.00 in 761.00 W/m2
15:36 50.6 °F 30.6 °F 30.02 in Calm   12.0 mph 46 % 0.00 in 220.00 W/m2
15:41 50.9 °F 30.3 °F 30.02 in NW 2.0 mph 11.0 mph 45 % 0.00 in 853.00 W/m2
15:46 51.2 °F 29.5 °F 30.01 in NNW 6.0 mph 11.0 mph 43 % 0.00 in 214.00 W/m2
15:51 51.6 °F 31.5 °F 30.01 in Calm   12.0 mph 46 % 0.00 in 807.00 W/m2
15:56 52.0 °F 30.8 °F 30.01 in Calm   11.0 mph 44 % 0.00 in 777.00 W/m2
16:01 52.6 °F 30.8 °F 30.01 in NNE 8.0 mph 14.0 mph 43 % 0.00 in 682.00 W/m2
16:06 52.9 °F 29.9 °F 30.01 in NNW 5.0 mph 18.0 mph 41 % 0.00 in 130.00 W/m2
16:11 52.9 °F 28.0 °F 30.01 in Calm   20.0 mph 38 % 0.00 in 156.00 W/m2
16:16 52.6 °F 30.8 °F 30.01 in North 5.0 mph 16.0 mph 43 % 0.00 in 613.00 W/m2
16:21 52.5 °F 27.6 °F 30.01 in North 13.0 mph 17.0 mph 38 % 0.00 in 599.00 W/m2
16:26 52.7 °F 28.5 °F 30.00 in NNW 1.0 mph 19.0 mph 39 % 0.00 in 577.00 W/m2
16:31 53.0 °F 30.0 °F 30.00 in NW 12.0 mph 17.0 mph 41 % 0.00 in 594.00 W/m2
16:36 53.1 °F 31.8 °F 30.00 in NNW 2.0 mph 17.0 mph 44 % 0.00 in 550.00 W/m2
16:41 53.1 °F 26.9 °F 29.99 in NNE 3.0 mph 16.0 mph 36 % 0.00 in 555.00 W/m2
16:46 53.2 °F 30.1 °F 30.00 in North 3.0 mph 4.0 mph 41 % 0.00 in 519.00 W/m2
16:51 53.2 °F 28.3 °F 30.00 in NNW 7.0 mph 21.0 mph 38 % 0.00 in 483.00 W/m2
16:56 53.2 °F 28.3 °F 29.99 in NNW 17.0 mph 22.0 mph 38 % 0.00 in 480.00 W/m2
17:01 53.1 °F 26.9 °F 30.00 in NNW 7.0 mph 24.0 mph 36 % 0.00 in 457.00 W/m2
17:06 52.9 °F 28.0 °F 30.00 in NNW 12.0 mph 12.0 mph 38 % 0.00 in 455.00 W/m2
17:11 52.8 °F 29.2 °F 30.00 in Calm     40 % 0.00 in 415.00 W/m2
17:16 52.7 °F 29.7 °F 30.00 in North 1.0 mph 11.0 mph 41 % 0.00 in 387.00 W/m2
17:21 52.6 °F 29.0 °F 30.00 in NNW 1.0 mph 17.0 mph 40 % 0.00 in 371.00 W/m2
17:26 52.4 °F 32.2 °F 30.00 in NNE 20.0 mph 20.0 mph 46 % 0.00 in 348.00 W/m2
17:31 52.3 °F 26.2 °F 30.00 in NNE 9.0 mph 20.0 mph 36 % 0.00 in 330.00 W/m2
17:36 52.2 °F 26.7 °F 30.00 in NE 4.0 mph 16.0 mph 37 % 0.00 in 311.00 W/m2
17:41 52.1 °F 29.7 °F 30.00 in Calm   9.0 mph 42 % 0.00 in 299.00 W/m2
17:46 51.9 °F 29.5 °F 30.00 in North 7.0 mph 14.0 mph 42 % 0.00 in 285.00 W/m2
17:51 51.7 °F 28.2 °F 30.00 in Calm   16.0 mph 40 % 0.00 in 260.00 W/m2
17:56 51.5 °F 27.4 °F 30.00 in Calm   17.0 mph 39 % 0.00 in 244.00 W/m2
18:01 51.3 °F 27.8 °F 30.00 in Calm   13.0 mph 40 % 0.00 in 229.00 W/m2
18:06 51.2 °F 30.6 °F 30.00 in North 6.0 mph 6.0 mph 45 % 0.00 in 209.00 W/m2
18:11 51.0 °F 28.1 °F 30.00 in NNW 14.0 mph 14.0 mph 41 % 0.00 in 190.00 W/m2
18:16 50.9 °F 30.9 °F 30.00 in NNW 3.0 mph 20.0 mph 46 % 0.00 in 172.00 W/m2
18:21 50.7 °F 27.9 °F 30.00 in North 14.0 mph 20.0 mph 41 % 0.00 in 148.00 W/m2
18:26 50.6 °F 26.6 °F 30.00 in Calm   21.0 mph 39 % 0.00 in 128.00 W/m2
18:31 50.4 °F 26.4 °F 30.00 in North 13.0 mph 18.0 mph 39 % 0.00 in 102.00 W/m2
18:36 50.3 °F 26.9 °F 30.01 in Calm     40 % 0.00 in 88.00 W/m2
18:41 50.1 °F 28.5 °F 30.01 in Calm   13.0 mph 43 % 0.00 in 44.00 W/m2
18:46 49.9 °F 29.4 °F 30.01 in North 7.0 mph 14.0 mph 45 % 0.00 in 54.00 W/m2
18:51 49.7 °F 27.6 °F 30.01 in NNE 6.0 mph 14.0 mph 42 % 0.00 in 44.00 W/m2
18:56 49.6 °F 29.7 °F 30.00 in Calm   13.0 mph 46 % 0.00 in 35.00 W/m2
18:57 49.6 °F 30.2 °F 30.00 in Calm   12.0 mph 47 % 0.00 in 32.00 W/m2
19:02 49.4 °F 28.4 °F 30.01 in Calm   11.0 mph 44 % 0.00 in 25.00 W/m2
19:07 49.1 °F 29.2 °F 30.01 in North 1.0 mph 9.0 mph 46 % 0.00 in 19.00 W/m2
19:12 48.8 °F 30.0 °F 30.01 in NNW 3.0 mph 5.0 mph 48 % 0.00 in 16.00 W/m2
19:17 48.5 °F 29.2 °F 30.01 in Calm   10.0 mph 47 % 0.00 in 12.00 W/m2
19:22 48.2 °F 29.5 °F 30.01 in Calm   15.0 mph 48 % 0.00 in 9.00 W/m2
19:27 48.0 °F 28.8 °F 30.01 in North 7.0 mph 11.0 mph 47 % 0.00 in 5.00 W/m2
19:32 47.8 °F 28.0 °F 30.02 in North 3.0 mph 9.0 mph 46 % 0.00 in 0.00 W/m2
19:37 47.8 °F 27.5 °F 30.02 in North 3.0 mph 10.0 mph 45 % 0.00 in 0.00 W/m2
19:42 47.7 °F 30.0 °F 30.02 in NNW 5.0 mph 6.0 mph 50 % 0.00 in 0.00 W/m2
19:47 47.5 °F 28.8 °F 30.02 in Calm   8.0 mph 48 % 0.00 in 0.00 W/m2
19:52 47.3 °F 29.6 °F 30.02 in Calm   7.0 mph 50 % 0.00 in 0.00 W/m2
19:57 46.9 °F 31.1 °F 30.02 in North 4.0 mph 4.0 mph 54 % 0.00 in 0.00 W/m2
20:02 46.6 °F 30.4 °F 30.02 in NNE 2.0 mph 7.0 mph 53 % 0.00 in 0.00 W/m2
20:07 46.3 °F 32.3 °F 30.02 in Calm   7.0 mph 58 % 0.00 in 0.00 W/m2
20:12 45.9 °F 30.2 °F 30.02 in NNW 2.0 mph 5.0 mph 54 % 0.00 in 0.00 W/m2
20:17 45.8 °F 29.2 °F 30.02 in North 2.0 mph 8.0 mph 52 % 0.00 in 0.00 W/m2
20:22 45.5 °F 30.7 °F 30.02 in Calm   6.0 mph 56 % 0.00 in 0.00 W/m2
20:23 45.6 °F 30.8 °F 30.02 in NNE 6.0 mph 6.0 mph 56 % 0.00 in 0.00 W/m2
20:28 45.4 °F 32.3 °F 30.02 in North 5.0 mph 6.0 mph 60 % 0.00 in 0.00 W/m2
20:33 45.2 °F 30.0 °F 30.03 in Calm   6.0 mph 55 % 0.00 in 0.00 W/m2
20:38 45.1 °F 32.9 °F 30.03 in Calm   8.0 mph 62 % 0.00 in 0.00 W/m2
20:43 44.9 °F 29.3 °F 30.03 in North 2.0 mph 7.0 mph 54 % 0.00 in 0.00 W/m2
20:48 44.8 °F 30.9 °F 30.03 in North 1.0 mph 5.0 mph 58 % 0.00 in 0.00 W/m2
20:53 44.7 °F 30.4 °F 30.03 in Calm   4.0 mph 57 % 0.00 in 0.00 W/m2
20:58 44.5 °F 30.7 °F 30.03 in Calm   5.0 mph 58 % 0.00 in 0.00 W/m2
21:03 44.3 °F 30.0 °F 30.03 in NNW 1.0 mph 6.0 mph 57 % 0.00 in 0.00 W/m2
21:08 44.1 °F 30.7 °F 30.03 in NNW 1.0 mph 6.0 mph 59 % 0.00 in 0.00 W/m2
21:13 44.0 °F 31.0 °F 30.03 in NNW 1.0 mph 5.0 mph 60 % 0.00 in 0.00 W/m2
21:18 43.7 °F 31.1 °F 30.04 in NNW 2.0 mph 7.0 mph 61 % 0.00 in 0.00 W/m2
21:23 43.6 °F 32.2 °F 30.04 in Calm   5.0 mph 64 % 0.00 in 0.00 W/m2
21:28 43.3 °F 31.2 °F 30.04 in Calm   6.0 mph 62 % 0.00 in 0.00 W/m2
21:33 43.2 °F 31.1 °F 30.04 in NNW 4.0 mph 8.0 mph 62 % 0.00 in 0.00 W/m2
21:38 43.0 °F 30.1 °F 30.04 in North 2.0 mph 7.0 mph 60 % 0.00 in 0.00 W/m2
21:43 43.0 °F 30.9 °F 30.05 in North 6.0 mph 9.0 mph 62 % 0.00 in 0.00 W/m2
21:48 42.9 °F 30.8 °F 30.05 in Calm   9.0 mph 62 % 0.00 in 0.00 W/m2
21:50 42.9 °F 31.2 °F 30.05 in Calm   9.0 mph 63 % 0.00 in 0.00 W/m2
21:55 42.9 °F 30.8 °F 30.05 in NNW 5.0 mph 7.0 mph 62 % 0.00 in 0.00 W/m2
22:00 43.0 °F 30.1 °F 30.05 in Calm   10.0 mph 60 % 0.00 in 0.00 W/m2
22:05 43.1 °F 29.8 °F 30.05 in North 4.0 mph 10.0 mph 59 % 0.00 in 0.00 W/m2
22:10 43.2 °F 30.7 °F 30.05 in North 4.0 mph 21.0 mph 61 % 0.00 in 0.00 W/m2
22:15 43.6 °F 28.1 °F 30.05 in North 16.0 mph 17.0 mph 54 % 0.00 in 0.00 W/m2
22:20 44.0 °F 27.0 °F 30.05 in Calm   14.0 mph 51 % 0.00 in 0.00 W/m2
22:25 44.2 °F 30.0 °F 30.05 in Calm   8.0 mph 57 % 0.00 in 0.00 W/m2
22:30 44.1 °F 31.1 °F 30.05 in Calm   9.0 mph 60 % 0.00 in 0.00 W/m2
22:35 44.0 °F 31.0 °F 30.05 in Calm   5.0 mph 60 % 0.00 in 0.00 W/m2
22:40 43.8 °F 30.0 °F 30.05 in Calm   5.0 mph 58 % 0.00 in 0.00 W/m2
22:45 43.6 °F 30.6 °F 30.05 in NNE 6.0 mph 7.0 mph 60 % 0.00 in 0.00 W/m2
22:50 43.4 °F 29.6 °F 30.05 in NNE 1.0 mph 6.0 mph 58 % 0.00 in 0.00 W/m2
22:55 43.1 °F 29.3 °F 30.05 in Calm   8.0 mph 58 % 0.00 in 0.00 W/m2
23:00 42.7 °F 28.5 °F 30.05 in Calm   8.0 mph 57 % 0.00 in 0.00 W/m2
23:05 42.3 °F 29.4 °F 30.05 in NNW 5.0 mph 9.0 mph 60 % 0.00 in 0.00 W/m2
23:10 42.0 °F 28.3 °F 30.05 in Calm   8.0 mph 58 % 0.00 in 0.00 W/m2
23:15 42.0 °F 29.9 °F 30.06 in North 3.0 mph 8.0 mph 62 % 0.00 in 0.00 W/m2
23:20 41.9 °F 28.6 °F 30.05 in Calm   10.0 mph 59 % 0.00 in 0.00 W/m2
23:25 42.0 °F 27.9 °F 30.06 in NNW 2.0 mph 9.0 mph 57 % 0.00 in 0.00 W/m2
23:30 42.1 °F 27.1 °F 30.06 in North 5.0 mph 9.0 mph 55 % 0.00 in 0.00 W/m2
23:35 42.3 °F 26.9 °F 30.06 in North 2.0 mph 9.0 mph 54 % 0.00 in 0.00 W/m2
23:40 42.4 °F 27.4 °F 30.06 in North 3.0 mph 7.0 mph 55 % 0.00 in 0.00 W/m2
23:45 42.4 °F 28.3 °F 30.06 in Calm   6.0 mph 57 % 0.00 in 0.00 W/m2
23:50 42.2 °F 27.6 °F 30.06 in Calm   8.0 mph 56 % 0.00 in 0.00 W/m2
23:55 42.1 °F 28.4 °F 30.06 in NNW 4.0 mph 8.0 mph 58 % 0.00 in 0.00 W/m2
Juneau County Weather
Compliments of Weather Underground - 4.25 mb
 WU-history PHP script courtesy of   Juneau County Weather.
powered by Cumulus v1.9.3 (1059)
Ambient Weather VWS v14.00
Top Contact Website Map Copyright © 2007 - 2018 Foresthillweather.com Never base important decisions on this or any weather information obtained from the Internet